createdAt,value
2018-05-11T00:00:03.818Z,97382.74
2018-05-11T00:02:34.907Z,97380.41
2018-05-11T00:05:04.861Z,97389.80
2018-05-11T00:07:36.436Z,97378.63
2018-05-11T00:10:07.736Z,97387.48
2018-05-11T00:12:38.639Z,97386.95
2018-05-11T00:15:09.773Z,97389.69
2018-05-11T00:17:40.626Z,97386.30
2018-05-11T00:20:11.759Z,97390.53
2018-05-11T00:22:42.558Z,97386.11
2018-05-11T00:25:17.079Z,97389.32
2018-05-11T00:30:02.640Z,97390.41
2018-05-11T00:32:32.837Z,97384.56
2018-05-11T00:35:04.517Z,97378.55
2018-05-11T00:37:35.768Z,97386.64
2018-05-11T00:40:05.947Z,97377.34
2018-05-11T00:42:37.616Z,97380.76
2018-05-11T00:45:07.895Z,97381.32
2018-05-11T00:47:37.858Z,97374.62
2018-05-11T00:50:08.802Z,97381.32
2018-05-11T00:52:40.409Z,97371.73
2018-05-11T00:55:30.933Z,97372.27
2018-05-11T00:58:01.898Z,97371.98
2018-05-11T01:00:32.809Z,97370.45
2018-05-11T01:03:02.777Z,97370.05
2018-05-11T01:06:41.881Z,97370.58
2018-05-11T01:09:11.668Z,97369.37
2018-05-11T01:11:41.858Z,97373.91
2018-05-11T01:14:11.963Z,97372.05
2018-05-11T01:16:41.662Z,97372.91
2018-05-11T01:19:12.816Z,97371.45
2018-05-11T01:21:44.022Z,97374.12
2018-05-11T01:24:13.681Z,97368.94
2018-05-11T01:26:43.895Z,97377.00
2018-05-11T01:29:13.885Z,97378.94
2018-05-11T01:31:44.912Z,97380.83
2018-05-11T01:34:14.885Z,97387.47
2018-05-11T01:36:47.274Z,97380.00
2018-05-11T01:39:17.672Z,97380.73
2018-05-11T01:41:48.529Z,97388.27
2018-05-11T01:44:20.838Z,97387.98
2018-05-11T01:46:51.778Z,97384.88
2018-05-11T01:49:22.001Z,97382.98
2018-05-11T01:51:52.764Z,97378.48
2018-05-11T01:54:23.058Z,97377.69
2018-05-11T01:56:54.699Z,97374.02
2018-05-11T01:59:25.660Z,97379.23
2018-05-11T02:01:55.982Z,97374.08
2018-05-11T02:04:25.656Z,97378.87
2018-05-11T02:06:55.725Z,97379.27
2018-05-11T02:09:25.887Z,97385.03
2018-05-11T02:11:55.856Z,97378.32
2018-05-11T02:14:25.812Z,97377.49
2018-05-11T02:16:58.026Z,97381.88
2018-05-11T02:19:27.847Z,97369.98
2018-05-11T02:21:57.766Z,97379.81
2018-05-11T02:24:27.858Z,97374.73
2018-05-11T02:27:01.407Z,97379.36
2018-05-11T02:29:31.850Z,97377.58
2018-05-11T02:32:02.507Z,97378.80
2018-05-11T02:34:33.578Z,97377.56
2018-05-11T02:37:03.606Z,97373.44
2018-05-11T02:39:33.607Z,97368.79
2018-05-11T02:42:03.822Z,97375.48
2018-05-11T02:44:35.029Z,97380.17
2018-05-11T02:47:05.455Z,97372.95
2018-05-11T02:49:36.664Z,97376.36
2018-05-11T02:52:06.589Z,97379.81
2018-05-11T02:54:36.805Z,97384.45
2018-05-11T02:57:06.736Z,97380.21
2018-05-11T02:59:36.761Z,97382.26
2018-05-11T03:02:06.765Z,97379.37
2018-05-11T03:04:37.524Z,97381.57
2018-05-11T03:07:07.563Z,97383.78
2018-05-11T03:09:39.999Z,97385.56
2018-05-11T03:12:09.515Z,97390.47
2018-05-11T03:14:39.910Z,97389.80
2018-05-11T03:17:08.975Z,97387.91
2018-05-11T03:19:38.646Z,97387.78
2018-05-11T03:22:09.713Z,97398.45
2018-05-11T03:24:39.583Z,97395.84
2018-05-11T03:27:10.603Z,97395.84
2018-05-11T03:29:40.586Z,97393.51
2018-05-11T03:32:12.420Z,97396.38
2018-05-11T03:34:42.670Z,97400.74
2018-05-11T03:37:13.966Z,97395.97
2018-05-11T03:39:43.580Z,97397.61
2018-05-11T03:42:14.619Z,97397.48
2018-05-11T03:44:44.598Z,97397.22
2018-05-11T03:48:43.548Z,97403.22
2018-05-11T03:51:13.578Z,97406.50
2018-05-11T03:53:43.690Z,97403.49
2018-05-11T03:56:14.106Z,97409.09
2018-05-11T03:58:46.348Z,97409.35
2018-05-11T04:01:34.825Z,97408.14
2018-05-11T04:04:23.596Z,97407.17
2018-05-11T04:07:12.706Z,97410.56
2018-05-11T04:09:42.568Z,97421.22
2018-05-11T04:12:12.571Z,97429.47
2018-05-11T04:14:43.613Z,97435.67
2018-05-11T04:17:13.573Z,97424.81
2018-05-11T04:19:43.571Z,97437.02
2018-05-11T04:22:13.565Z,97437.59
2018-05-11T04:24:44.523Z,97438.31
2018-05-11T04:27:15.526Z,97439.16
2018-05-11T04:29:45.501Z,97434.09
2018-05-11T04:32:15.529Z,97442.52
2018-05-11T04:34:45.528Z,97443.16
2018-05-11T04:37:16.804Z,97440.94
2018-05-11T04:39:48.313Z,97446.02
2018-05-11T04:42:19.581Z,97446.06
2018-05-11T04:44:50.590Z,97438.33
2018-05-11T04:47:20.733Z,97442.33
2018-05-11T04:49:52.565Z,97449.25
2018-05-11T04:52:22.562Z,97447.27
2018-05-11T04:54:53.736Z,97446.33
2018-05-11T04:57:24.713Z,97450.46
2018-05-11T04:59:55.592Z,97453.00
2018-05-11T05:02:25.576Z,97450.65
2018-05-11T05:04:55.569Z,97454.70
2018-05-11T05:07:26.589Z,97453.02
2018-05-11T05:09:56.592Z,97453.40
2018-05-11T05:12:26.747Z,97461.88
2018-05-11T05:14:56.687Z,97469.50
2018-05-11T05:17:27.591Z,97467.06
2018-05-11T05:19:57.578Z,97469.33
2018-05-11T05:22:28.593Z,97470.99
2018-05-11T05:24:58.598Z,97467.98
2018-05-11T05:27:30.938Z,97465.87
2018-05-11T05:32:21.578Z,97465.98
2018-05-11T05:37:21.560Z,97477.48
2018-05-11T05:39:53.568Z,97477.05
2018-05-11T05:42:24.573Z,97484.45
2018-05-11T05:44:54.572Z,97466.16
2018-05-11T05:47:26.972Z,97484.98
2018-05-11T05:49:56.425Z,97481.19
2018-05-11T05:52:27.600Z,97476.77
2018-05-11T05:56:30.579Z,97479.49
2018-05-11T05:59:00.758Z,97483.14
2018-05-11T06:01:31.425Z,97477.73
2018-05-11T06:04:02.505Z,97491.54
2018-05-11T06:09:15.818Z,97492.31
2018-05-11T06:11:45.947Z,97499.36
2018-05-11T06:14:15.577Z,97502.20
2018-05-11T06:16:46.616Z,97499.61
2018-05-11T06:19:16.587Z,97506.38
2018-05-11T06:21:47.579Z,97507.30
2018-05-11T06:24:18.898Z,97506.00
2018-05-11T06:26:48.533Z,97511.80
2018-05-11T06:29:19.472Z,97513.90
2018-05-11T06:31:50.940Z,97515.92
2018-05-11T06:34:20.540Z,97508.78
2018-05-11T06:36:51.783Z,97516.63
2018-05-11T06:39:22.641Z,97522.57
2018-05-11T06:41:52.878Z,97520.11
2018-05-11T06:44:24.469Z,97519.88
2018-05-11T06:46:54.735Z,97523.00
2018-05-11T06:49:24.565Z,97524.84
2018-05-11T06:51:55.690Z,97520.75
2018-05-11T06:54:26.603Z,97529.48
2018-05-11T06:56:56.837Z,97513.20
2018-05-11T06:59:26.482Z,97516.89
2018-05-11T07:01:56.810Z,97518.72
2018-05-11T07:04:27.039Z,97526.05
2018-05-11T07:06:57.802Z,97524.66
2018-05-11T07:09:31.770Z,97523.62
2018-05-11T07:12:02.533Z,97526.25
2018-05-11T07:14:33.567Z,97525.45
2018-05-11T07:17:04.788Z,97522.08
2018-05-11T07:19:34.871Z,97529.58
2018-05-11T07:22:05.572Z,97526.84
2018-05-11T07:24:35.929Z,97521.88
2018-05-11T07:27:05.764Z,97525.34
2018-05-11T07:29:35.682Z,97526.20
2018-05-11T07:32:05.600Z,97519.53
2018-05-11T07:34:35.612Z,97518.84
2018-05-11T07:37:05.625Z,97515.48
2018-05-11T07:39:35.613Z,97513.09
2018-05-11T07:42:06.578Z,97523.91
2018-05-11T07:44:36.798Z,97523.36
2018-05-11T07:47:06.833Z,97520.80
2018-05-11T07:49:36.522Z,97523.33
2018-05-11T07:52:08.606Z,97518.48
2018-05-11T07:55:20.358Z,97518.52
2018-05-11T07:57:50.844Z,97521.61
2018-05-11T08:00:21.384Z,97517.92
2018-05-11T08:02:51.905Z,97518.53
2018-05-11T08:05:22.263Z,97519.88
2018-05-11T08:07:53.716Z,97520.09
2018-05-11T08:10:24.941Z,97515.98
2018-05-11T08:12:55.976Z,97520.75
2018-05-11T08:15:26.557Z,97519.11
2018-05-11T08:17:57.587Z,97522.39
2018-05-11T08:20:28.595Z,97524.41
2018-05-11T08:22:58.671Z,97527.60
2018-05-11T08:25:28.730Z,97524.20
2018-05-11T08:27:58.606Z,97524.59
2018-05-11T08:30:28.580Z,97530.33
2018-05-11T08:32:59.551Z,97524.50
2018-05-11T08:35:29.550Z,97528.69
2018-05-11T08:38:00.629Z,97528.47
2018-05-11T08:40:30.550Z,97524.83
2018-05-11T08:43:00.651Z,97527.50
2018-05-11T08:45:30.607Z,97532.09
2018-05-11T08:48:00.786Z,97536.09
2018-05-11T08:50:30.768Z,97532.61
2018-05-11T08:53:01.809Z,97529.45
2018-05-11T08:55:32.577Z,97539.05
2018-05-11T08:58:02.587Z,97539.87
2018-05-11T09:00:32.585Z,97531.23
2018-05-11T09:03:02.603Z,97531.86
2018-05-11T09:05:34.586Z,97535.66
2018-05-11T09:08:05.690Z,97538.98
2018-05-11T09:10:35.915Z,97537.21
2018-05-11T09:13:08.343Z,97543.78
2018-05-11T09:15:38.609Z,97538.34
2018-05-11T09:18:08.632Z,97536.46
2018-05-11T09:20:38.827Z,97542.45
2018-05-11T09:23:08.800Z,97539.92
2018-05-11T09:25:38.590Z,97544.19
2018-05-11T09:28:09.833Z,97540.42
2018-05-11T09:30:40.513Z,97534.70
2018-05-11T09:33:13.884Z,97540.76
2018-05-11T09:35:44.575Z,97533.58
2018-05-11T09:38:16.846Z,97539.00
2018-05-11T09:40:46.564Z,97539.30
2018-05-11T09:43:17.645Z,97535.88
2018-05-11T09:45:48.650Z,97544.78
2018-05-11T09:48:18.689Z,97541.53
2018-05-11T09:50:50.669Z,97538.94
2018-05-11T09:53:22.805Z,97543.63
2018-05-11T09:57:35.574Z,97538.08
2018-05-11T10:00:06.490Z,97537.34
2018-05-11T10:02:37.604Z,97540.09
2018-05-11T10:05:08.689Z,97537.38
2018-05-11T10:07:39.750Z,97528.38
2018-05-11T10:10:09.805Z,97531.02
2018-05-11T10:12:39.708Z,97528.07
2018-05-11T10:15:10.878Z,97529.13
2018-05-11T10:17:40.731Z,97532.42
2018-05-11T10:20:11.518Z,97521.69
2018-05-11T10:22:42.648Z,97528.58
2018-05-11T10:25:16.873Z,97527.94
2018-05-11T10:27:48.648Z,97523.03
2018-05-11T10:30:28.915Z,97518.35
2018-05-11T10:32:58.953Z,97523.87
2018-05-11T10:35:29.625Z,97521.57
2018-05-11T10:37:59.890Z,97518.37
2018-05-11T10:40:29.593Z,97518.43
2018-05-11T10:42:59.749Z,97515.48
2018-05-11T10:45:33.725Z,97518.30
2018-05-11T10:48:03.844Z,97512.47
2018-05-11T10:50:33.796Z,97513.69
2018-05-11T10:53:03.834Z,97513.59
2018-05-11T10:55:33.811Z,97515.15
2018-05-11T10:58:04.031Z,97520.19
2018-05-11T11:00:34.494Z,97512.33
2018-05-11T11:03:05.900Z,97514.02
2018-05-11T11:05:35.649Z,97506.02
2018-05-11T11:08:06.602Z,97506.83
2018-05-11T11:10:36.603Z,97504.14
2018-05-11T11:13:07.605Z,97502.48
2018-05-11T11:15:37.802Z,97496.13
2018-05-11T11:18:08.605Z,97497.42
2018-05-11T11:20:39.596Z,97503.49
2018-05-11T11:23:09.592Z,97503.29
2018-05-11T11:25:39.588Z,97498.28
2018-05-11T11:28:10.799Z,97497.09
2018-05-11T11:30:40.912Z,97496.47
2018-05-11T11:33:10.593Z,97493.16
2018-05-11T11:35:40.683Z,97495.84
2018-05-11T11:38:12.559Z,97495.63
2018-05-11T11:40:42.593Z,97490.09
2018-05-11T11:43:12.944Z,97488.69
2018-05-11T11:45:42.478Z,97492.84
2018-05-11T11:48:13.583Z,97484.48
2018-05-11T11:50:43.536Z,97483.56
2018-05-11T11:53:14.666Z,97479.61
2018-05-11T11:55:44.578Z,97475.79
2018-05-11T11:58:15.572Z,97468.39
2018-05-11T12:00:46.494Z,97465.58
2018-05-11T12:03:16.665Z,97468.98
